createdAt,value
2017-09-02T00:01:06.686Z,68.20
2017-09-02T00:03:32.983Z,66.80
2017-09-02T00:06:00.024Z,67.10
2017-09-02T00:08:26.373Z,66.90
2017-09-02T00:10:52.684Z,66.90
2017-09-02T00:13:19.004Z,66.90
2017-09-02T00:15:45.492Z,67.00
2017-09-02T00:18:11.894Z,67.90
2017-09-02T00:20:38.215Z,67.20
2017-09-02T00:23:04.490Z,67.90
2017-09-02T00:25:30.822Z,68.30
2017-09-02T00:27:57.165Z,68.40
2017-09-02T00:30:23.866Z,68.00
2017-09-02T00:32:50.191Z,68.00
2017-09-02T00:35:18.235Z,67.40
2017-09-02T00:37:44.564Z,67.90
2017-09-02T00:40:11.479Z,67.90
2017-09-02T00:42:37.838Z,69.40
2017-09-02T00:45:04.187Z,69.20
2017-09-02T00:47:30.545Z,69.20
2017-09-02T00:49:56.869Z,69.00
2017-09-02T00:52:23.189Z,68.60
2017-09-02T00:54:49.489Z,69.10
2017-09-02T00:57:15.929Z,69.90
2017-09-02T00:59:42.294Z,70.30
2017-09-02T01:02:09.681Z,70.40
2017-09-02T01:04:35.973Z,69.60
2017-09-02T01:07:02.305Z,70.50
2017-09-02T01:09:28.646Z,72.00
2017-09-02T01:11:54.952Z,70.70
2017-09-02T01:14:22.049Z,71.10
2017-09-02T01:16:48.345Z,71.30
2017-09-02T01:19:14.645Z,70.10
2017-09-02T01:21:41.044Z,70.40
2017-09-02T01:24:07.336Z,70.40
2017-09-02T01:26:33.632Z,71.70
2017-09-02T01:29:00.764Z,71.80
2017-09-02T01:31:27.067Z,71.70
2017-09-02T01:33:53.340Z,71.50
2017-09-02T01:36:20.477Z,71.00
2017-09-02T01:38:46.755Z,70.90
2017-09-02T01:41:15.465Z,71.90
2017-09-02T01:43:41.762Z,72.60
2017-09-02T01:46:08.057Z,71.80
2017-09-02T01:48:34.336Z,72.70
2017-09-02T01:51:00.688Z,72.20
2017-09-02T01:53:26.960Z,71.70
2017-09-02T01:55:53.254Z,70.60
2017-09-02T01:58:19.588Z,71.30
2017-09-02T02:00:46.098Z,71.50
2017-09-02T02:03:12.449Z,71.70
2017-09-02T02:05:38.745Z,72.20
2017-09-02T02:08:05.025Z,71.30
2017-09-02T02:10:31.377Z,70.90
2017-09-02T02:12:59.440Z,71.10
2017-09-02T02:15:25.749Z,71.90
2017-09-02T02:17:52.061Z,71.90
2017-09-02T02:20:18.338Z,73.00
2017-09-02T02:22:44.633Z,72.30
2017-09-02T02:25:10.938Z,73.10
2017-09-02T02:27:38.078Z,72.60
2017-09-02T02:30:07.280Z,72.40
2017-09-02T02:32:33.731Z,71.70
2017-09-02T02:35:01.169Z,72.00
2017-09-02T02:37:27.470Z,72.20
2017-09-02T02:39:53.811Z,72.40
2017-09-02T02:42:20.165Z,72.70
2017-09-02T02:44:46.482Z,73.70
2017-09-02T02:47:12.768Z,73.40
2017-09-02T02:49:39.073Z,73.60
2017-09-02T02:52:05.353Z,72.60
2017-09-02T02:54:32.640Z,73.20
2017-09-02T02:56:58.937Z,72.60
2017-09-02T02:59:25.322Z,73.00
2017-09-02T03:01:51.623Z,72.90
2017-09-02T03:04:17.940Z,72.60
2017-09-02T03:06:44.264Z,73.60
2017-09-02T03:09:11.285Z,72.80
2017-09-02T03:11:37.596Z,72.80
2017-09-02T03:14:03.889Z,72.40
2017-09-02T03:16:30.185Z,73.60
2017-09-02T03:18:56.484Z,74.00
2017-09-02T03:21:23.405Z,73.30
2017-09-02T03:23:49.700Z,72.10
2017-09-02T03:26:16.022Z,72.50
2017-09-02T03:28:42.345Z,72.30
2017-09-02T03:31:08.643Z,72.40
2017-09-02T03:33:35.005Z,72.50
2017-09-02T03:36:02.057Z,74.00
2017-09-02T03:38:28.404Z,72.50
2017-09-02T03:40:54.682Z,72.30
2017-09-02T03:43:20.964Z,72.20
2017-09-02T03:45:47.223Z,71.20
2017-09-02T03:48:13.501Z,71.50
2017-09-02T03:50:40.736Z,71.00
2017-09-02T03:53:07.025Z,72.00
2017-09-02T03:55:33.317Z,72.90
2017-09-02T03:57:59.666Z,72.10
2017-09-02T04:00:26.005Z,72.50
2017-09-02T04:02:52.287Z,72.10
2017-09-02T04:05:18.557Z,71.10
2017-09-02T04:07:44.854Z,70.80
2017-09-02T04:10:11.146Z,70.90
2017-09-02T04:12:37.424Z,71.40
2017-09-02T04:15:03.722Z,71.70
2017-09-02T04:17:29.998Z,72.10
2017-09-02T04:19:56.320Z,71.90
2017-09-02T04:22:22.617Z,71.70
2017-09-02T04:24:48.941Z,72.00
2017-09-02T04:27:16.144Z,70.80
2017-09-02T04:29:42.449Z,71.00
2017-09-02T04:32:08.712Z,70.90
2017-09-02T04:34:34.997Z,71.20
2017-09-02T04:37:01.293Z,71.50
2017-09-02T04:39:27.620Z,71.20
2017-09-02T04:41:53.905Z,70.90
2017-09-02T04:44:20.208Z,71.30
2017-09-02T04:46:46.515Z,71.30
2017-09-02T04:49:12.999Z,71.10
2017-09-02T04:51:39.294Z,71.20
2017-09-02T04:54:05.612Z,70.60
2017-09-02T04:56:31.926Z,70.20
2017-09-02T04:58:58.329Z,70.30
2017-09-02T05:01:24.721Z,71.10
2017-09-02T05:03:51.009Z,71.00
2017-09-02T05:06:17.301Z,70.80
2017-09-02T05:08:44.017Z,70.70
2017-09-02T05:11:10.389Z,71.20
2017-09-02T05:13:36.709Z,71.80
2017-09-02T05:16:02.996Z,71.80
2017-09-02T05:18:29.442Z,71.70
2017-09-02T05:20:55.830Z,71.20
2017-09-02T05:23:22.116Z,70.90
2017-09-02T05:25:48.389Z,71.00
2017-09-02T05:28:14.677Z,71.10
2017-09-02T05:30:40.949Z,70.90
2017-09-02T05:33:07.329Z,71.10
2017-09-02T05:35:34.396Z,71.30
2017-09-02T05:38:00.682Z,71.70
2017-09-02T05:40:26.962Z,72.30
2017-09-02T05:42:53.229Z,71.40
2017-09-02T05:45:19.945Z,71.20
2017-09-02T05:47:46.276Z,71.50
2017-09-02T05:50:12.573Z,71.80
2017-09-02T05:52:38.921Z,71.00
2017-09-02T05:55:05.233Z,71.70
2017-09-02T05:57:32.788Z,71.40
2017-09-02T05:59:59.115Z,71.40
2017-09-02T06:02:25.477Z,71.00
2017-09-02T06:04:51.916Z,71.70
2017-09-02T06:07:18.977Z,71.60
2017-09-02T06:09:45.310Z,70.60
2017-09-02T06:12:11.675Z,71.10
2017-09-02T06:14:37.982Z,70.80
2017-09-02T06:17:04.280Z,71.00
2017-09-02T06:19:31.340Z,69.60
2017-09-02T06:21:57.657Z,69.50
2017-09-02T06:24:26.167Z,71.30
2017-09-02T06:26:52.661Z,70.20
2017-09-02T06:29:19.809Z,70.90
2017-09-02T06:31:46.168Z,70.90
2017-09-02T06:34:12.483Z,71.00
2017-09-02T06:36:38.784Z,70.90
2017-09-02T06:39:05.113Z,70.10
2017-09-02T06:41:33.296Z,70.70
2017-09-02T06:43:59.583Z,69.20
2017-09-02T06:46:25.876Z,70.30
2017-09-02T06:48:52.177Z,70.90
2017-09-02T06:51:18.479Z,71.30
2017-09-02T06:53:44.769Z,71.40
2017-09-02T06:56:11.078Z,71.80
2017-09-02T06:58:37.544Z,71.10
2017-09-02T07:01:03.841Z,71.40
2017-09-02T07:03:30.154Z,71.10
2017-09-02T07:05:56.443Z,71.30
2017-09-02T07:08:22.749Z,70.70
2017-09-02T07:10:49.038Z,70.40
2017-09-02T07:13:15.365Z,70.20
2017-09-02T07:15:41.671Z,70.00
2017-09-02T07:18:07.947Z,69.40
2017-09-02T07:20:34.215Z,68.70
2017-09-02T07:23:00.748Z,67.90
2017-09-02T07:25:27.148Z,68.70
2017-09-02T07:27:53.473Z,68.30
2017-09-02T07:30:19.765Z,68.40
2017-09-02T07:32:46.083Z,68.40
2017-09-02T07:35:12.387Z,68.70
2017-09-02T07:37:38.663Z,68.40
2017-09-02T07:40:05.076Z,68.50
2017-09-02T07:42:31.481Z,68.50
2017-09-02T07:44:57.752Z,68.40
2017-09-02T07:47:24.121Z,68.50
2017-09-02T07:49:50.447Z,68.60
2017-09-02T07:52:16.836Z,68.40
2017-09-02T07:54:43.126Z,68.50
2017-09-02T07:57:09.430Z,68.60
2017-09-02T07:59:35.979Z,68.30
2017-09-02T08:02:05.447Z,67.90
2017-09-02T08:04:31.856Z,67.50
2017-09-02T08:06:58.209Z,68.60
2017-09-02T08:09:24.813Z,68.70
2017-09-02T08:11:51.381Z,68.40
2017-09-02T08:14:17.786Z,68.70
2017-09-02T08:16:44.143Z,68.00
2017-09-02T08:19:14.163Z,68.80
2017-09-02T08:21:40.452Z,68.30
2017-09-02T08:24:06.749Z,68.70
2017-09-02T08:26:33.033Z,68.90
2017-09-02T08:29:00.068Z,68.40
2017-09-02T08:31:26.361Z,68.40
2017-09-02T08:33:52.691Z,66.80
2017-09-02T08:36:19.078Z,66.40
2017-09-02T08:38:45.377Z,66.90
2017-09-02T08:41:11.697Z,68.10
2017-09-02T08:43:38.003Z,68.20
2017-09-02T08:46:06.136Z,68.90
2017-09-02T08:48:32.516Z,68.80
2017-09-02T08:51:19.447Z,68.90
2017-09-02T08:53:48.558Z,67.60
2017-09-02T08:56:14.882Z,68.50
2017-09-02T08:58:43.105Z,68.90
2017-09-02T09:01:09.398Z,68.90
2017-09-02T09:03:35.733Z,69.00
2017-09-02T09:06:02.088Z,68.60
2017-09-02T09:08:28.414Z,69.10
2017-09-02T09:10:54.740Z,69.10
2017-09-02T09:13:21.042Z,68.40
2017-09-02T09:15:48.706Z,67.60
2017-09-02T09:18:14.993Z,65.90
2017-09-02T09:20:41.326Z,67.70
2017-09-02T09:23:07.627Z,68.20
2017-09-02T09:25:33.937Z,68.30
2017-09-02T09:28:00.243Z,67.30
2017-09-02T09:30:26.519Z,62.90
2017-09-02T09:32:55.667Z,63.90
2017-09-02T09:35:23.669Z,65.20
2017-09-02T09:37:50.933Z,64.80
2017-09-02T09:40:17.221Z,65.30
2017-09-02T09:42:43.489Z,64.40
2017-09-02T09:45:09.813Z,63.80
2017-09-02T09:47:36.104Z,64.30
2017-09-02T09:50:05.295Z,62.80
2017-09-02T09:52:31.589Z,64.30
2017-09-02T09:54:57.853Z,65.00
2017-09-02T09:57:24.247Z,61.20
2017-09-02T09:59:50.532Z,61.10
2017-09-02T10:02:16.800Z,62.20
2017-09-02T10:04:43.074Z,62.40
2017-09-02T10:07:09.348Z,61.50
2017-09-02T10:09:36.815Z,63.20
2017-09-02T10:12:03.139Z,62.30
2017-09-02T10:14:29.503Z,62.20
2017-09-02T10:16:55.826Z,63.50
2017-09-02T10:19:22.113Z,59.50
2017-09-02T10:21:48.396Z,55.60
2017-09-02T10:24:14.683Z,58.30
2017-09-02T10:26:43.520Z,60.30
2017-09-02T10:29:11.878Z,60.00
2017-09-02T10:31:38.185Z,60.60
2017-09-02T10:34:04.548Z,59.80
2017-09-02T10:36:30.850Z,59.40
2017-09-02T10:38:57.202Z,60.60
2017-09-02T10:41:23.569Z,57.20
2017-09-02T10:43:50.861Z,57.30
2017-09-02T10:46:18.607Z,57.60
2017-09-02T10:48:44.922Z,57.30
2017-09-02T10:51:11.203Z,56.30
2017-09-02T10:53:38.296Z,56.80
2017-09-02T10:56:04.562Z,57.50
2017-09-02T10:58:30.855Z,55.60
2017-09-02T11:00:57.258Z,55.50
2017-09-02T11:03:23.642Z,52.70
2017-09-02T11:05:52.100Z,54.40
2017-09-02T11:08:18.482Z,54.20
2017-09-02T11:10:45.116Z,54.80
2017-09-02T11:13:11.454Z,53.40
2017-09-02T11:15:37.760Z,55.80
2017-09-02T11:18:04.048Z,58.00
2017-09-02T11:20:31.396Z,56.50
2017-09-02T11:22:57.737Z,56.70
2017-09-02T11:25:25.042Z,55.30
2017-09-02T11:27:51.329Z,51.10
2017-09-02T11:30:17.671Z,54.20
2017-09-02T11:32:43.985Z,52.30
2017-09-02T11:35:10.447Z,54.10
2017-09-02T11:37:36.858Z,57.20
2017-09-02T11:40:03.148Z,57.10
2017-09-02T11:42:29.457Z,56.60
2017-09-02T11:44:55.911Z,57.90
2017-09-02T11:47:22.324Z,59.00
2017-09-02T11:49:48.760Z,54.50
2017-09-02T11:52:15.093Z,56.40
2017-09-02T11:54:43.886Z,54.20
2017-09-02T11:57:10.250Z,56.60
2017-09-02T11:59:36.631Z,55.80
2017-09-02T12:02:02.946Z,52.40
2017-09-02T12:04:29.235Z,53.10
2017-09-02T12:06:55.528Z,56.80
2017-09-02T12:09:21.996Z,54.60
2017-09-02T12:11:48.341Z,55.00
2017-09-02T12:14:14.705Z,55.10
2017-09-02T12:16:41.064Z,54.80
2017-09-02T12:19:07.510Z,55.50
2017-09-02T12:21:34.980Z,58.20
2017-09-02T12:24:01.366Z,56.80
2017-09-02T12:26:27.870Z,58.60
2017-09-02T12:28:54.197Z,57.60
2017-09-02T12:31:21.433Z,59.80
2017-09-02T12:33:47.722Z,58.30
2017-09-02T12:36:13.992Z,58.30
2017-09-02T12:38:40.277Z,60.00
2017-09-02T12:41:06.541Z,59.90
2017-09-02T12:43:32.816Z,58.60
2017-09-02T12:45:59.131Z,57.80
2017-09-02T12:48:26.641Z,59.80
2017-09-02T12:50:54.631Z,57.60
2017-09-02T12:53:21.029Z,59.70
2017-09-02T12:55:47.496Z,58.20
2017-09-02T12:58:13.798Z,59.20
2017-09-02T13:00:40.088Z,58.30
2017-09-02T13:03:06.380Z,56.00
2017-09-02T13:05:32.798Z,59.20
2017-09-02T13:07:59.107Z,58.20
2017-09-02T13:10:25.383Z,58.50
2017-09-02T13:12:51.654Z,56.80
2017-09-02T13:15:18.069Z,56.30
2017-09-02T13:17:44.508Z,57.70
2017-09-02T13:20:10.921Z,58.90
2017-09-02T13:22:56.453Z,57.30
2017-09-02T13:25:29.278Z,59.10
2017-09-02T13:28:01.622Z,58.90
2017-09-02T13:30:33.959Z,57.00
2017-09-02T13:33:06.378Z,54.00
2017-09-02T13:35:40.273Z,57.20
2017-09-02T13:38:12.633Z,58.50
2017-09-02T13:40:38.909Z,59.30
2017-09-02T13:43:11.438Z,59.30
2017-09-02T13:45:44.099Z,52.30
2017-09-02T13:48:16.633Z,56.90
2017-09-02T13:50:49.089Z,57.30
2017-09-02T13:53:21.608Z,57.90
2017-09-02T13:55:55.092Z,54.10
2017-09-02T13:58:27.512Z,57.30
2017-09-02T14:00:53.891Z,59.00
2017-09-02T14:03:20.323Z,55.70
2017-09-02T14:05:53.050Z,55.10
2017-09-02T14:08:19.434Z,55.60
2017-09-02T14:10:45.803Z,57.60
2017-09-02T14:13:12.185Z,56.80
2017-09-02T14:15:38.553Z,57.10
2017-09-02T14:18:05.003Z,55.10
2017-09-02T14:20:31.434Z,56.80
2017-09-02T14:22:57.786Z,53.00
2017-09-02T14:25:24.270Z,51.70
2017-09-02T14:27:50.729Z,56.00
2017-09-02T14:30:17.083Z,55.70
2017-09-02T14:32:43.425Z,52.80
2017-09-02T14:35:09.791Z,51.00
2017-09-02T14:37:36.193Z,50.80
2017-09-02T14:40:02.589Z,50.80
2017-09-02T14:42:29.380Z,49.40
2017-09-02T14:44:55.825Z,54.20
2017-09-02T14:47:22.180Z,53.00
2017-09-02T14:49:48.548Z,54.60
2017-09-02T14:52:14.887Z,54.60
2017-09-02T14:54:41.238Z,56.00
2017-09-02T14:57:07.814Z,54.50
2017-09-02T14:59:34.253Z,53.40
2017-09-02T15:02:00.642Z,54.50
2017-09-02T15:04:27.019Z,55.30
2017-09-02T15:06:53.407Z,54.00
2017-09-02T15:09:19.778Z,51.80
2017-09-02T15:11:46.179Z,49.10
2017-09-02T15:14:12.637Z,49.60
2017-09-02T15:16:38.984Z,50.40
2017-09-02T15:19:07.467Z,48.40
2017-09-02T15:21:34.391Z,52.50
2017-09-02T15:24:00.854Z,54.10
2017-09-02T15:26:27.286Z,51.90
2017-09-02T15:28:53.671Z,50.80
2017-09-02T15:31:20.048Z,53.70
2017-09-02T15:33:46.493Z,49.50
2017-09-02T15:36:12.910Z,49.50
2017-09-02T15:38:39.314Z,50.20
2017-09-02T15:41:05.938Z,53.30
2017-09-02T15:43:32.297Z,51.10
2017-09-02T15:45:58.653Z,48.80
2017-09-02T15:48:25.096Z,47.20
2017-09-02T15:50:51.431Z,49.70
2017-09-02T15:53:17.776Z,49.00
2017-09-02T15:55:44.142Z,52.30
2017-09-02T15:58:10.609Z,51.40
2017-09-02T16:00:36.953Z,49.50
2017-09-02T16:03:09.202Z,52.90
2017-09-02T16:05:35.561Z,49.20
2017-09-02T16:08:05.321Z,51.30
2017-09-02T16:10:32.125Z,49.50
2017-09-02T16:13:01.580Z,51.80
2017-09-02T16:15:28.053Z,50.00
2017-09-02T16:17:55.138Z,51.40
2017-09-02T16:20:21.570Z,51.60
2017-09-02T16:22:47.958Z,52.20
2017-09-02T16:25:15.428Z,53.50
2017-09-02T16:27:45.644Z,55.10
2017-09-02T16:30:12.014Z,55.50
2017-09-02T16:32:38.388Z,54.20
2017-09-02T16:35:04.756Z,56.40
2017-09-02T16:37:31.266Z,52.20
2017-09-02T16:39:57.657Z,50.60
2017-09-02T16:42:24.039Z,53.20
2017-09-02T16:44:50.418Z,52.50
2017-09-02T16:47:18.086Z,52.10
2017-09-02T16:49:44.475Z,51.80
2017-09-02T16:52:11.009Z,51.00
2017-09-02T16:54:37.518Z,51.20
2017-09-02T16:57:03.918Z,48.90
2017-09-02T16:59:31.496Z,46.60
2017-09-02T17:01:57.917Z,53.80
2017-09-02T17:04:24.312Z,51.90
2017-09-02T17:06:50.873Z,53.70
2017-09-02T17:09:18.365Z,54.90
2017-09-02T17:11:44.756Z,54.60
2017-09-02T17:14:11.216Z,57.40
2017-09-02T17:16:37.678Z,56.50
2017-09-02T17:19:04.068Z,58.40
2017-09-02T17:21:32.276Z,60.20
2017-09-02T17:23:58.713Z,60.80
2017-09-02T17:26:25.860Z,60.70
2017-09-02T17:28:52.241Z,62.30
2017-09-02T17:31:18.709Z,62.20
2017-09-02T17:33:45.066Z,64.10
2017-09-02T17:36:11.450Z,64.50
2017-09-02T17:38:37.862Z,62.90
2017-09-02T17:41:04.216Z,64.30
2017-09-02T17:43:30.573Z,65.00
2017-09-02T17:45:56.918Z,65.60
2017-09-02T17:48:23.297Z,65.40
2017-09-02T17:50:51.440Z,66.70
2017-09-02T17:53:17.846Z,66.30
2017-09-02T17:55:44.186Z,65.60
2017-09-02T17:58:11.076Z,66.30
2017-09-02T18:00:37.935Z,66.90
2017-09-02T18:03:04.328Z,67.10
2017-09-02T18:05:30.680Z,66.70
2017-09-02T18:07:57.052Z,66.60
2017-09-02T18:10:23.518Z,66.50
2017-09-02T18:12:49.901Z,66.00
2017-09-02T18:15:16.344Z,66.70
2017-09-02T18:17:42.710Z,66.80
2017-09-02T18:20:09.078Z,66.70
2017-09-02T18:22:35.578Z,66.30
2017-09-02T18:25:02.045Z,68.20
2017-09-02T18:27:28.395Z,66.00
2017-09-02T18:29:54.751Z,67.90
2017-09-02T18:32:21.110Z,67.30
2017-09-02T18:34:47.504Z,66.20
2017-09-02T18:37:13.862Z,67.10
2017-09-02T18:39:40.258Z,67.10
2017-09-02T18:42:06.601Z,67.40
2017-09-02T18:44:32.969Z,68.10
2017-09-02T18:46:59.383Z,68.10
2017-09-02T18:49:25.854Z,67.00
2017-09-02T18:51:52.239Z,68.00
2017-09-02T18:54:18.622Z,68.20
2017-09-02T18:56:44.968Z,67.20
2017-09-02T18:59:14.690Z,67.70
2017-09-02T19:01:41.029Z,67.30
2017-09-02T19:04:07.442Z,67.60
2017-09-02T19:06:33.839Z,67.60
2017-09-02T19:09:00.216Z,67.60
2017-09-02T19:11:26.581Z,66.70
2017-09-02T19:13:53.084Z,68.00
2017-09-02T19:16:21.917Z,68.20
2017-09-02T19:18:48.298Z,68.30
2017-09-02T19:21:14.692Z,67.90
2017-09-02T19:23:45.195Z,68.30
2017-09-02T19:26:11.549Z,68.00
2017-09-02T19:28:37.887Z,67.60
2017-09-02T19:31:04.257Z,67.20
2017-09-02T19:33:30.702Z,68.20
2017-09-02T19:35:57.101Z,68.20
2017-09-02T19:38:23.462Z,68.20
2017-09-02T19:40:49.826Z,67.80
2017-09-02T19:43:16.219Z,67.00
2017-09-02T19:45:42.563Z,67.30
2017-09-02T19:48:08.918Z,68.20
2017-09-02T19:50:35.342Z,67.30
2017-09-02T19:53:01.769Z,67.40
2017-09-02T19:55:28.135Z,67.30
2017-09-02T19:57:54.505Z,67.20
2017-09-02T20:00:20.862Z,67.80
2017-09-02T20:02:47.234Z,67.30
2017-09-02T20:05:13.694Z,68.00
2017-09-02T20:07:40.081Z,66.80
2017-09-02T20:10:06.490Z,68.00
2017-09-02T20:12:35.064Z,67.30
2017-09-02T20:15:01.553Z,68.00
2017-09-02T20:17:27.933Z,67.50
2017-09-02T20:19:54.313Z,67.10
2017-09-02T20:22:20.833Z,67.90
2017-09-02T20:24:47.275Z,67.60
2017-09-02T20:27:14.443Z,67.00
2017-09-02T20:29:42.434Z,67.30
2017-09-02T20:32:08.853Z,67.10
2017-09-02T20:34:35.214Z,67.00
2017-09-02T20:37:01.618Z,66.90
2017-09-02T20:39:27.996Z,67.60
2017-09-02T20:41:54.622Z,67.60
2017-09-02T20:44:21.002Z,67.80
2017-09-02T20:46:47.394Z,67.60
2017-09-02T20:49:13.789Z,67.60
2017-09-02T20:51:40.259Z,67.10
2017-09-02T20:54:06.691Z,67.40
2017-09-02T20:56:33.129Z,67.10
2017-09-02T20:58:59.514Z,67.60
2017-09-02T21:01:25.870Z,67.70
2017-09-02T21:03:52.253Z,66.70
2017-09-02T21:06:19.595Z,67.40
2017-09-02T21:08:46.000Z,67.40
2017-09-02T21:11:12.336Z,67.20
2017-09-02T21:13:38.801Z,67.40
2017-09-02T21:16:05.570Z,67.10
2017-09-02T21:18:31.930Z,66.70
2017-09-02T21:20:58.289Z,67.20
2017-09-02T21:23:24.690Z,65.70
2017-09-02T21:25:51.132Z,66.20
2017-09-02T21:28:17.503Z,66.00
2017-09-02T21:30:44.002Z,67.30
2017-09-02T21:33:10.656Z,67.10
2017-09-02T21:35:37.092Z,67.30
2017-09-02T21:38:03.470Z,66.10
2017-09-02T21:40:29.899Z,67.10
2017-09-02T21:42:56.249Z,67.10
2017-09-02T21:45:22.617Z,67.10
2017-09-02T21:47:49.027Z,65.80
2017-09-02T21:50:17.447Z,66.90
2017-09-02T21:52:43.840Z,68.10
2017-09-02T21:55:10.190Z,67.90
2017-09-02T21:57:36.561Z,67.90
2017-09-02T22:00:03.021Z,66.90
2017-09-02T22:02:29.476Z,67.80
2017-09-02T22:04:55.914Z,66.60
2017-09-02T22:07:22.305Z,68.00
2017-09-02T22:09:48.797Z,67.40
2017-09-02T22:12:15.181Z,67.60
2017-09-02T22:14:41.566Z,68.00
2017-09-02T22:17:07.927Z,66.80
2017-09-02T22:19:34.281Z,66.80
2017-09-02T22:22:00.637Z,68.40
2017-09-02T22:24:27.014Z,68.70
2017-09-02T22:26:53.380Z,67.60
2017-09-02T22:29:19.778Z,66.80
2017-09-02T22:31:46.145Z,67.90
2017-09-02T22:34:12.517Z,66.60
2017-09-02T22:36:38.953Z,67.20
2017-09-02T22:39:05.435Z,67.00
2017-09-02T22:41:31.897Z,67.70
2017-09-02T22:43:58.366Z,68.00
2017-09-02T22:46:24.755Z,67.60
2017-09-02T22:48:51.201Z,67.80
2017-09-02T22:51:17.606Z,66.50
2017-09-02T22:53:44.026Z,66.60
2017-09-02T22:56:10.447Z,66.60
2017-09-02T22:58:36.945Z,67.40
2017-09-02T23:01:03.369Z,67.70
2017-09-02T23:03:29.827Z,67.70
2017-09-02T23:05:56.218Z,68.40
2017-09-02T23:08:22.577Z,66.30
2017-09-02T23:10:48.978Z,66.90
2017-09-02T23:13:15.444Z,68.20
2017-09-02T23:15:41.818Z,68.40
2017-09-02T23:18:08.353Z,67.90
2017-09-02T23:20:34.781Z,67.70
2017-09-02T23:23:01.197Z,67.40
2017-09-02T23:25:30.057Z,68.10
2017-09-02T23:27:56.445Z,67.90
2017-09-02T23:30:24.688Z,67.60
2017-09-02T23:32:51.073Z,67.00
2017-09-02T23:35:17.465Z,67.80
2017-09-02T23:37:45.091Z,67.60
2017-09-02T23:40:11.626Z,67.70
2017-09-02T23:42:38.010Z,67.90
2017-09-02T23:45:04.491Z,66.70
2017-09-02T23:47:30.924Z,68.20
2017-09-02T23:49:57.338Z,70.50
2017-09-02T23:52:23.713Z,68.10
2017-09-02T23:54:50.098Z,68.20
2017-09-02T23:57:16.490Z,66.70
2017-09-02T23:59:42.861Z,68.30
